Terminal Aerodrome Forecast
Issued by NWS

Home | Current Version | Previous Version | Text Only | Print | Product List | Glossary On
Versions: 1 2 3 4 5 6 7 8 9 10 11 12 13
000
FTUS41 KBOX 312320
TAFBED
TAF
KBED 312320Z 0100/0124 23007KT P6SM BKN100
     FM010400 22004KT P6SM VCSH OVC050
     FM010900 00000KT P6SM -SHRA OVC035
     FM011300 VRB03KT P6SM VCSH OVC060
     FM011600 30004KT P6SM BKN050=

USA.gov is the U.S. government's official web portal to all federal, state and local government web resources and services.